Springdale, Oregon
Current Conditions -  °F | °C
As of 2:53 AM on Monday 20 Oct 2014 (Local Time) from KTTD Reporting Station
Light Rain Light Rain  
Wind Chill: 61°   Ceiling: 4100
Heat Index: 61°   Visibility: 9mi
Dew Point: 58°   Wind: 0mph
Humidity: 90%   Direction: NA
Pressure: 29.73"   Gusts: NA
Location:  45.5277°N, 122.373°W
Report Text: KTTD 200953Z AUTO 00000KT 9SM -RA BKN041 BKN048 OVC070 16/14 A2973 RMK AO2 RAB21 SLP068 P0002 T01610144
Loading
Personal Weather Stations






























Interactive Weather Map
Tropical Storm Tracking
New forecast layout! Learn more

10-Day Weather Forecast

Advertisements
Track Severe Weather on mobile